sensor_id;sensor_type;location;lat;lon;timestamp;temperature;humidity
13794;DHT22;31160;49.500;7.772;2023-06-22T00:00:58;21.20;99.90
13794;DHT22;31160;49.500;7.772;2023-06-22T00:03:25;21.30;99.90
13794;DHT22;31160;49.500;7.772;2023-06-22T00:05:52;21.40;99.90
13794;DHT22;31160;49.500;7.772;2023-06-22T00:08:19;21.40;99.90
13794;DHT22;31160;49.500;7.772;2023-06-22T00:10:46;21.40;99.90
13794;DHT22;31160;49.500;7.772;2023-06-22T00:13:16;21.30;99.90
13794;DHT22;31160;49.500;7.772;2023-06-22T00:15:43;21.40;99.90
13794;DHT22;31160;49.500;7.772;2023-06-22T00:18:10;21.50;99.90
13794;DHT22;31160;49.500;7.772;2023-06-22T00:20:38;21.50;99.90
13794;DHT22;31160;49.500;7.772;2023-06-22T00:23:06;21.30;99.90
13794;DHT22;31160;49.500;7.772;2023-06-22T00:25:36;21.20;99.90
13794;DHT22;31160;49.500;7.772;2023-06-22T00:28:04;20.60;99.90
13794;DHT22;31160;49.500;7.772;2023-06-22T00:30:31;20.20;99.90
13794;DHT22;31160;49.500;7.772;2023-06-22T00:32:58;19.90;99.90
13794;DHT22;31160;49.500;7.772;2023-06-22T00:35:26;19.70;99.90
13794;DHT22;31160;49.500;7.772;2023-06-22T00:37:56;19.60;99.90
13794;DHT22;31160;49.500;7.772;2023-06-22T00:40:32;19.60;99.90
13794;DHT22;31160;49.500;7.772;2023-06-22T00:43:00;19.60;99.90
13794;DHT22;31160;49.500;7.772;2023-06-22T00:45:28;19.60;99.90
13794;DHT22;31160;49.500;7.772;2023-06-22T00:47:58;19.70;99.90
13794;DHT22;31160;49.500;7.772;2023-06-22T00:50:28;19.80;99.90
13794;DHT22;31160;49.500;7.772;2023-06-22T00:53:04;19.70;99.90
13794;DHT22;31160;49.500;7.772;2023-06-22T00:55:41;19.80;99.90
13794;DHT22;31160;49.500;7.772;2023-06-22T00:58:11;19.90;99.90
13794;DHT22;31160;49.500;7.772;2023-06-22T01:00:39;20.00;99.90
13794;DHT22;31160;49.500;7.772;2023-06-22T01:03:07;20.10;99.90
13794;DHT22;31160;49.500;7.772;2023-06-22T01:05:38;20.10;99.90
13794;DHT22;31160;49.500;7.772;2023-06-22T01:08:37;20.10;99.90
13794;DHT22;31160;49.500;7.772;2023-06-22T01:11:18;20.10;99.90
13794;DHT22;31160;49.500;7.772;2023-06-22T01:14:07;20.10;99.90
13794;DHT22;31160;49.500;7.772;2023-06-22T01:16:43;20.10;99.90
13794;DHT22;31160;49.500;7.772;2023-06-22T01:19:39;20.00;99.90
13794;DHT22;31160;49.500;7.772;2023-06-22T01:22:11;19.80;99.90
13794;DHT22;31160;49.500;7.772;2023-06-22T01:24:55;19.70;99.90
13794;DHT22;31160;49.500;7.772;2023-06-22T01:27:39;19.70;99.90
13794;DHT22;31160;49.500;7.772;2023-06-22T01:30:08;19.70;99.90
13794;DHT22;31160;49.500;7.772;2023-06-22T01:32:38;19.70;99.90
13794;DHT22;31160;49.500;7.772;2023-06-22T01:35:07;19.80;99.90
13794;DHT22;31160;49.500;7.772;2023-06-22T01:37:37;19.80;99.90
13794;DHT22;31160;49.500;7.772;2023-06-22T01:40:05;19.80;99.90
13794;DHT22;31160;49.500;7.772;2023-06-22T01:42:34;19.90;99.90
13794;DHT22;31160;49.500;7.772;2023-06-22T01:45:02;19.90;99.90
13794;DHT22;31160;49.500;7.772;2023-06-22T01:47:29;19.90;99.90
13794;DHT22;31160;49.500;7.772;2023-06-22T01:49:56;20.00;99.90
13794;DHT22;31160;49.500;7.772;2023-06-22T01:52:23;20.00;99.90
13794;DHT22;31160;49.500;7.772;2023-06-22T01:54:50;20.10;99.90
13794;DHT22;31160;49.500;7.772;2023-06-22T01:57:18;20.20;99.90
13794;DHT22;31160;49.500;7.772;2023-06-22T02:00:01;20.20;99.90
13794;DHT22;31160;49.500;7.772;2023-06-22T02:03:10;20.30;99.90
13794;DHT22;31160;49.500;7.772;2023-06-22T02:05:41;20.30;99.90
13794;DHT22;31160;49.500;7.772;2023-06-22T02:08:12;20.10;99.90
13794;DHT22;31160;49.500;7.772;2023-06-22T02:10:43;20.20;99.90
13794;DHT22;31160;49.500;7.772;2023-06-22T02:13:13;20.10;99.90
13794;DHT22;31160;49.500;7.772;2023-06-22T02:15:41;20.10;99.90
13794;DHT22;31160;49.500;7.772;2023-06-22T02:18:12;20.10;99.90
13794;DHT22;31160;49.500;7.772;2023-06-22T02:20:39;20.00;99.90
13794;DHT22;31160;49.500;7.772;2023-06-22T02:23:07;20.00;99.90
13794;DHT22;31160;49.500;7.772;2023-06-22T02:25:35;20.00;99.90
13794;DHT22;31160;49.500;7.772;2023-06-22T02:28:02;19.90;99.90
13794;DHT22;31160;49.500;7.772;2023-06-22T02:30:30;20.00;99.90
13794;DHT22;31160;49.500;7.772;2023-06-22T02:32:58;20.00;99.90
13794;DHT22;31160;49.500;7.772;2023-06-22T02:35:27;20.00;99.90
13794;DHT22;31160;49.500;7.772;2023-06-22T02:37:58;19.60;99.90
13794;DHT22;31160;49.500;7.772;2023-06-22T02:40:26;19.60;99.90
13794;DHT22;31160;49.500;7.772;2023-06-22T02:42:56;19.60;99.90
13794;DHT22;31160;49.500;7.772;2023-06-22T02:45:24;19.60;99.90
13794;DHT22;31160;49.500;7.772;2023-06-22T02:47:51;19.50;99.90
13794;DHT22;31160;49.500;7.772;2023-06-22T02:50:18;19.60;99.90
13794;DHT22;31160;49.500;7.772;2023-06-22T02:52:45;19.60;99.90
13794;DHT22;31160;49.500;7.772;2023-06-22T02:55:12;19.60;99.90
13794;DHT22;31160;49.500;7.772;2023-06-22T02:57:39;19.60;99.90
13794;DHT22;31160;49.500;7.772;2023-06-22T03:00:10;19.60;99.90
13794;DHT22;31160;49.500;7.772;2023-06-22T03:02:46;19.60;99.90
13794;DHT22;31160;49.500;7.772;2023-06-22T03:05:15;19.60;99.90
13794;DHT22;31160;49.500;7.772;2023-06-22T03:07:45;19.60;99.90
13794;DHT22;31160;49.500;7.772;2023-06-22T03:10:13;19.60;99.90
13794;DHT22;31160;49.500;7.772;2023-06-22T03:12:40;19.50;99.90
13794;DHT22;31160;49.500;7.772;2023-06-22T03:15:09;19.40;99.90
13794;DHT22;31160;49.500;7.772;2023-06-22T03:17:37;19.40;99.90
13794;DHT22;31160;49.500;7.772;2023-06-22T03:20:09;19.40;99.90
13794;DHT22;31160;49.500;7.772;2023-06-22T03:22:38;19.30;99.90
13794;DHT22;31160;49.500;7.772;2023-06-22T03:25:06;19.30;99.90
13794;DHT22;31160;49.500;7.772;2023-06-22T03:27:42;19.40;99.90
13794;DHT22;31160;49.500;7.772;2023-06-22T03:30:13;19.40;99.90
13794;DHT22;31160;49.500;7.772;2023-06-22T03:32:40;19.30;99.90
13794;DHT22;31160;49.500;7.772;2023-06-22T03:35:07;19.20;99.90
13794;DHT22;31160;49.500;7.772;2023-06-22T03:37:36;19.20;99.90
13794;DHT22;31160;49.500;7.772;2023-06-22T03:40:02;19.30;99.90
13794;DHT22;31160;49.500;7.772;2023-06-22T03:42:34;19.40;99.90
13794;DHT22;31160;49.500;7.772;2023-06-22T03:45:03;19.40;99.90
13794;DHT22;31160;49.500;7.772;2023-06-22T03:47:30;19.40;99.90
13794;DHT22;31160;49.500;7.772;2023-06-22T03:49:57;19.40;99.90
13794;DHT22;31160;49.500;7.772;2023-06-22T03:52:24;19.50;99.90
13794;DHT22;31160;49.500;7.772;2023-06-22T03:54:52;19.50;99.90
13794;DHT22;31160;49.500;7.772;2023-06-22T03:57:18;19.50;99.90
13794;DHT22;31160;49.500;7.772;2023-06-22T03:59:45;19.50;99.90
13794;DHT22;31160;49.500;7.772;2023-06-22T04:02:12;19.60;99.90
13794;DHT22;31160;49.500;7.772;2023-06-22T04:04:39;19.60;99.90
13794;DHT22;31160;49.500;7.772;2023-06-22T04:07:06;19.60;99.90
13794;DHT22;31160;49.500;7.772;2023-06-22T04:09:33;19.70;99.90
13794;DHT22;31160;49.500;7.772;2023-06-22T04:12:01;19.60;99.90
13794;DHT22;31160;49.500;7.772;2023-06-22T04:14:28;19.80;99.90
13794;DHT22;31160;49.500;7.772;2023-06-22T04:16:55;19.70;99.90
13794;DHT22;31160;49.500;7.772;2023-06-22T04:19:21;19.70;99.90
13794;DHT22;31160;49.500;7.772;2023-06-22T04:21:48;19.80;99.90
13794;DHT22;31160;49.500;7.772;2023-06-22T04:24:15;19.80;99.90
13794;DHT22;31160;49.500;7.772;2023-06-22T04:26:42;19.80;99.90
13794;DHT22;31160;49.500;7.772;2023-06-22T04:29:11;19.80;99.90
13794;DHT22;31160;49.500;7.772;2023-06-22T04:31:38;19.90;99.90
13794;DHT22;31160;49.500;7.772;2023-06-22T04:34:06;19.90;99.90
13794;DHT22;31160;49.500;7.772;2023-06-22T04:39:08;20.10;99.90
13794;DHT22;31160;49.500;7.772;2023-06-22T04:41:36;20.30;99.90
13794;DHT22;31160;49.500;7.772;2023-06-22T04:44:16;20.40;99.90
13794;DHT22;31160;49.500;7.772;2023-06-22T04:46:53;20.60;99.90
13794;DHT22;31160;49.500;7.772;2023-06-22T04:49:36;20.70;99.90
13794;DHT22;31160;49.500;7.772;2023-06-22T04:52:08;20.80;99.90
13794;DHT22;31160;49.500;7.772;2023-06-22T04:54:36;20.90;99.90
13794;DHT22;31160;49.500;7.772;2023-06-22T04:57:04;21.00;99.90
13794;DHT22;31160;49.500;7.772;2023-06-22T04:59:31;21.20;99.90
13794;DHT22;31160;49.500;7.772;2023-06-22T05:02:00;21.40;99.90
13794;DHT22;31160;49.500;7.772;2023-06-22T05:04:30;21.60;99.90
13794;DHT22;31160;49.500;7.772;2023-06-22T05:07:00;22.30;99.90
13794;DHT22;31160;49.500;7.772;2023-06-22T05:09:27;23.90;99.90
13794;DHT22;31160;49.500;7.772;2023-06-22T05:11:54;25.50;99.90
13794;DHT22;31160;49.500;7.772;2023-06-22T05:14:21;26.60;99.90
13794;DHT22;31160;49.500;7.772;2023-06-22T05:16:48;27.60;99.90
13794;DHT22;31160;49.500;7.772;2023-06-22T05:19:15;28.30;99.90
13794;DHT22;31160;49.500;7.772;2023-06-22T05:21:42;28.10;99.90
13794;DHT22;31160;49.500;7.772;2023-06-22T05:24:09;29.20;99.90
13794;DHT22;31160;49.500;7.772;2023-06-22T05:26:36;29.90;99.90
13794;DHT22;31160;49.500;7.772;2023-06-22T05:29:03;30.10;99.90
13794;DHT22;31160;49.500;7.772;2023-06-22T05:31:30;29.60;99.90
13794;DHT22;31160;49.500;7.772;2023-06-22T05:33:57;29.50;99.90
13794;DHT22;31160;49.500;7.772;2023-06-22T05:36:24;29.50;99.90
13794;DHT22;31160;49.500;7.772;2023-06-22T05:38:56;29.30;99.90
13794;DHT22;31160;49.500;7.772;2023-06-22T05:41:23;29.80;99.90
13794;DHT22;31160;49.500;7.772;2023-06-22T05:43:50;30.20;99.90
13794;DHT22;31160;49.500;7.772;2023-06-22T05:46:18;30.30;99.90
13794;DHT22;31160;49.500;7.772;2023-06-22T05:48:45;30.00;99.70
13794;DHT22;31160;49.500;7.772;2023-06-22T05:51:12;30.60;99.20
13794;DHT22;31160;49.500;7.772;2023-06-22T05:53:38;31.20;98.40
13794;DHT22;31160;49.500;7.772;2023-06-22T05:56:05;31.00;98.70
13794;DHT22;31160;49.500;7.772;2023-06-22T05:58:32;31.30;98.10
13794;DHT22;31160;49.500;7.772;2023-06-22T06:00:59;30.90;98.60
13794;DHT22;31160;49.500;7.772;2023-06-22T06:03:27;29.60;99.50
13794;DHT22;31160;49.500;7.772;2023-06-22T06:05:55;29.50;99.90
13794;DHT22;31160;49.500;7.772;2023-06-22T06:08:22;29.40;99.80
13794;DHT22;31160;49.500;7.772;2023-06-22T06:10:49;29.00;99.90
13794;DHT22;31160;49.500;7.772;2023-06-22T06:13:15;28.80;99.90
13794;DHT22;31160;49.500;7.772;2023-06-22T06:15:42;28.60;99.90
13794;DHT22;31160;49.500;7.772;2023-06-22T06:18:09;28.50;99.90
13794;DHT22;31160;49.500;7.772;2023-06-22T06:20:36;28.20;99.90
13794;DHT22;31160;49.500;7.772;2023-06-22T06:23:03;28.50;99.90
13794;DHT22;31160;49.500;7.772;2023-06-22T06:25:29;28.50;99.90
13794;DHT22;31160;49.500;7.772;2023-06-22T06:27:56;28.40;99.90
13794;DHT22;31160;49.500;7.772;2023-06-22T06:30:23;28.20;99.90
13794;DHT22;31160;49.500;7.772;2023-06-22T06:32:50;27.40;99.90
13794;DHT22;31160;49.500;7.772;2023-06-22T06:35:17;27.00;99.90
13794;DHT22;31160;49.500;7.772;2023-06-22T06:37:46;26.60;99.90
13794;DHT22;31160;49.500;7.772;2023-06-22T06:40:14;26.10;99.90
13794;DHT22;31160;49.500;7.772;2023-06-22T06:42:43;26.20;99.90
13794;DHT22;31160;49.500;7.772;2023-06-22T06:45:12;26.30;99.90
13794;DHT22;31160;49.500;7.772;2023-06-22T06:47:39;26.30;99.90
13794;DHT22;31160;49.500;7.772;2023-06-22T06:50:07;26.20;99.90
13794;DHT22;31160;49.500;7.772;2023-06-22T06:52:34;26.00;99.90
13794;DHT22;31160;49.500;7.772;2023-06-22T06:55:05;25.60;99.90
13794;DHT22;31160;49.500;7.772;2023-06-22T06:57:35;25.40;99.90
13794;DHT22;31160;49.500;7.772;2023-06-22T07:00:13;25.60;99.90
13794;DHT22;31160;49.500;7.772;2023-06-22T07:02:43;25.40;99.90
13794;DHT22;31160;49.500;7.772;2023-06-22T07:05:11;25.30;99.90
13794;DHT22;31160;49.500;7.772;2023-06-22T07:07:38;25.70;99.90
13794;DHT22;31160;49.500;7.772;2023-06-22T07:10:05;25.60;99.90
13794;DHT22;31160;49.500;7.772;2023-06-22T07:12:33;25.50;99.90
13794;DHT22;31160;49.500;7.772;2023-06-22T07:15:08;25.60;99.90
13794;DHT22;31160;49.500;7.772;2023-06-22T07:17:36;25.20;99.90
13794;DHT22;31160;49.500;7.772;2023-06-22T07:20:03;25.80;99.90
13794;DHT22;31160;49.500;7.772;2023-06-22T07:22:39;25.70;99.90
13794;DHT22;31160;49.500;7.772;2023-06-22T07:25:07;26.20;99.90
13794;DHT22;31160;49.500;7.772;2023-06-22T07:27:38;26.40;99.90
13794;DHT22;31160;49.500;7.772;2023-06-22T07:30:07;26.70;99.90
13794;DHT22;31160;49.500;7.772;2023-06-22T07:32:33;26.80;99.90
13794;DHT22;31160;49.500;7.772;2023-06-22T07:35:00;26.40;99.90
13794;DHT22;31160;49.500;7.772;2023-06-22T07:37:28;26.60;99.90
13794;DHT22;31160;49.500;7.772;2023-06-22T07:39:55;26.10;99.90
13794;DHT22;31160;49.500;7.772;2023-06-22T07:42:26;26.10;99.90
13794;DHT22;31160;49.500;7.772;2023-06-22T07:44:53;26.40;99.90
13794;DHT22;31160;49.500;7.772;2023-06-22T07:47:21;26.40;99.90
13794;DHT22;31160;49.500;7.772;2023-06-22T07:49:51;26.70;99.90
13794;DHT22;31160;49.500;7.772;2023-06-22T07:52:21;26.60;99.90
13794;DHT22;31160;49.500;7.772;2023-06-22T07:54:48;26.60;99.90
13794;DHT22;31160;49.500;7.772;2023-06-22T07:57:14;26.60;99.90
13794;DHT22;31160;49.500;7.772;2023-06-22T07:59:41;26.70;99.90
13794;DHT22;31160;49.500;7.772;2023-06-22T08:02:08;26.50;99.90
13794;DHT22;31160;49.500;7.772;2023-06-22T08:04:36;26.70;99.90
13794;DHT22;31160;49.500;7.772;2023-06-22T08:07:03;27.00;99.90
13794;DHT22;31160;49.500;7.772;2023-06-22T08:09:32;26.60;99.90
13794;DHT22;31160;49.500;7.772;2023-06-22T08:11:59;26.40;99.90
13794;DHT22;31160;49.500;7.772;2023-06-22T08:14:26;26.00;99.90
13794;DHT22;31160;49.500;7.772;2023-06-22T08:16:53;26.40;99.90
13794;DHT22;31160;49.500;7.772;2023-06-22T08:19:20;26.40;99.90
13794;DHT22;31160;49.500;7.772;2023-06-22T08:21:47;26.70;99.90
13794;DHT22;31160;49.500;7.772;2023-06-22T08:24:14;27.00;99.90
13794;DHT22;31160;49.500;7.772;2023-06-22T08:26:41;27.50;99.90
13794;DHT22;31160;49.500;7.772;2023-06-22T08:29:07;27.70;99.90
13794;DHT22;31160;49.500;7.772;2023-06-22T08:31:34;27.20;99.90
13794;DHT22;31160;49.500;7.772;2023-06-22T08:34:01;27.00;99.90
13794;DHT22;31160;49.500;7.772;2023-06-22T08:36:28;27.10;99.90
13794;DHT22;31160;49.500;7.772;2023-06-22T08:38:57;27.30;99.90
13794;DHT22;31160;49.500;7.772;2023-06-22T08:41:24;27.60;99.90
13794;DHT22;31160;49.500;7.772;2023-06-22T08:43:52;27.90;99.90
13794;DHT22;31160;49.500;7.772;2023-06-22T08:46:19;27.90;99.90
13794;DHT22;31160;49.500;7.772;2023-06-22T08:48:49;27.90;99.90
13794;DHT22;31160;49.500;7.772;2023-06-22T08:51:17;27.70;99.90
13794;DHT22;31160;49.500;7.772;2023-06-22T08:53:43;27.80;99.90
13794;DHT22;31160;49.500;7.772;2023-06-22T08:56:11;27.60;99.90
13794;DHT22;31160;49.500;7.772;2023-06-22T08:58:38;27.50;99.90
13794;DHT22;31160;49.500;7.772;2023-06-22T09:01:05;27.70;99.90
13794;DHT22;31160;49.500;7.772;2023-06-22T09:03:32;27.90;99.90
13794;DHT22;31160;49.500;7.772;2023-06-22T09:05:59;27.60;99.90
13794;DHT22;31160;49.500;7.772;2023-06-22T09:08:26;27.60;99.90
13794;DHT22;31160;49.500;7.772;2023-06-22T09:10:53;27.30;99.90
13794;DHT22;31160;49.500;7.772;2023-06-22T09:13:20;27.30;99.90
13794;DHT22;31160;49.500;7.772;2023-06-22T09:15:48;27.20;99.90
13794;DHT22;31160;49.500;7.772;2023-06-22T09:18:15;27.50;99.90
13794;DHT22;31160;49.500;7.772;2023-06-22T09:20:42;27.70;99.90
13794;DHT22;31160;49.500;7.772;2023-06-22T09:23:09;28.00;99.90
13794;DHT22;31160;49.500;7.772;2023-06-22T09:25:35;28.00;99.90
13794;DHT22;31160;49.500;7.772;2023-06-22T09:28:02;28.10;99.90
13794;DHT22;31160;49.500;7.772;2023-06-22T09:30:29;28.00;99.90
13794;DHT22;31160;49.500;7.772;2023-06-22T09:32:56;27.70;99.90
13794;DHT22;31160;49.500;7.772;2023-06-22T09:35:23;27.80;99.90
13794;DHT22;31160;49.500;7.772;2023-06-22T09:37:50;28.00;99.90
13794;DHT22;31160;49.500;7.772;2023-06-22T09:40:18;28.40;99.90
13794;DHT22;31160;49.500;7.772;2023-06-22T09:42:45;28.70;99.90
13794;DHT22;31160;49.500;7.772;2023-06-22T09:45:12;28.70;99.90
13794;DHT22;31160;49.500;7.772;2023-06-22T09:47:38;28.50;99.90
13794;DHT22;31160;49.500;7.772;2023-06-22T09:50:06;28.60;99.90
13794;DHT22;31160;49.500;7.772;2023-06-22T09:52:33;28.90;99.70
13794;DHT22;31160;49.500;7.772;2023-06-22T09:55:14;28.90;99.10
13794;DHT22;31160;49.500;7.772;2023-06-22T09:57:42;28.80;99.10
13794;DHT22;31160;49.500;7.772;2023-06-22T10:00:09;28.70;99.20
13794;DHT22;31160;49.500;7.772;2023-06-22T10:02:40;28.40;99.30
13794;DHT22;31160;49.500;7.772;2023-06-22T10:05:08;28.40;99.20
13794;DHT22;31160;49.500;7.772;2023-06-22T10:07:35;28.70;99.10
13794;DHT22;31160;49.500;7.772;2023-06-22T10:10:07;28.60;98.90
13794;DHT22;31160;49.500;7.772;2023-06-22T10:12:34;28.60;98.80
13794;DHT22;31160;49.500;7.772;2023-06-22T10:15:01;28.50;99.40
13794;DHT22;31160;49.500;7.772;2023-06-22T10:17:28;28.70;98.70
13794;DHT22;31160;49.500;7.772;2023-06-22T10:19:55;28.80;99.20
13794;DHT22;31160;49.500;7.772;2023-06-22T10:22:21;28.90;99.10
13794;DHT22;31160;49.500;7.772;2023-06-22T10:24:48;28.90;98.50
13794;DHT22;31160;49.500;7.772;2023-06-22T10:27:15;28.90;99.40
13794;DHT22;31160;49.500;7.772;2023-06-22T10:29:41;29.10;98.20
13794;DHT22;31160;49.500;7.772;2023-06-22T10:32:09;28.90;98.30
13794;DHT22;31160;49.500;7.772;2023-06-22T10:34:36;28.80;98.70
13794;DHT22;31160;49.500;7.772;2023-06-22T10:37:02;28.90;98.50
13794;DHT22;31160;49.500;7.772;2023-06-22T10:39:29;29.00;98.00
13794;DHT22;31160;49.500;7.772;2023-06-22T10:41:56;29.00;98.10
13794;DHT22;31160;49.500;7.772;2023-06-22T10:44:23;29.40;97.80
13794;DHT22;31160;49.500;7.772;2023-06-22T10:46:49;29.60;97.70
13794;DHT22;31160;49.500;7.772;2023-06-22T10:49:16;29.60;97.00
13794;DHT22;31160;49.500;7.772;2023-06-22T10:51:43;29.40;97.50
13794;DHT22;31160;49.500;7.772;2023-06-22T10:54:10;29.60;97.40
13794;DHT22;31160;49.500;7.772;2023-06-22T10:56:37;29.80;97.20
13794;DHT22;31160;49.500;7.772;2023-06-22T10:59:03;29.50;97.30
13794;DHT22;31160;49.500;7.772;2023-06-22T11:01:30;29.30;97.20
13794;DHT22;31160;49.500;7.772;2023-06-22T11:04:03;29.20;97.50
13794;DHT22;31160;49.500;7.772;2023-06-22T11:06:31;29.30;97.60
13794;DHT22;31160;49.500;7.772;2023-06-22T11:08:57;29.40;97.60
13794;DHT22;31160;49.500;7.772;2023-06-22T11:11:37;29.60;96.70
13794;DHT22;31160;49.500;7.772;2023-06-22T11:14:04;29.60;95.60
13794;DHT22;31160;49.500;7.772;2023-06-22T11:16:31;29.90;95.80
13794;DHT22;31160;49.500;7.772;2023-06-22T11:18:58;30.00;96.10
13794;DHT22;31160;49.500;7.772;2023-06-22T11:21:24;30.00;96.80
13794;DHT22;31160;49.500;7.772;2023-06-22T11:23:51;30.20;96.20
13794;DHT22;31160;49.500;7.772;2023-06-22T11:26:18;30.10;96.20
13794;DHT22;31160;49.500;7.772;2023-06-22T11:28:45;29.70;96.20
13794;DHT22;31160;49.500;7.772;2023-06-22T11:31:11;29.90;95.50
13794;DHT22;31160;49.500;7.772;2023-06-22T11:33:41;30.10;95.80
13794;DHT22;31160;49.500;7.772;2023-06-22T11:36:08;30.40;95.10
13794;DHT22;31160;49.500;7.772;2023-06-22T11:38:35;30.40;95.60
13794;DHT22;31160;49.500;7.772;2023-06-22T11:41:06;30.40;95.10
13794;DHT22;31160;49.500;7.772;2023-06-22T11:43:33;30.30;94.80
13794;DHT22;31160;49.500;7.772;2023-06-22T11:46:01;30.30;94.70
13794;DHT22;31160;49.500;7.772;2023-06-22T11:48:28;30.50;94.20
13794;DHT22;31160;49.500;7.772;2023-06-22T11:50:55;30.60;94.20
13794;DHT22;31160;49.500;7.772;2023-06-22T11:53:26;31.00;94.20
13794;DHT22;31160;49.500;7.772;2023-06-22T11:55:53;31.20;94.20
13794;DHT22;31160;49.500;7.772;2023-06-22T11:58:21;31.30;93.40
13794;DHT22;31160;49.500;7.772;2023-06-22T12:00:48;31.50;92.80
13794;DHT22;31160;49.500;7.772;2023-06-22T12:03:18;31.60;92.10
13794;DHT22;31160;49.500;7.772;2023-06-22T12:05:46;31.50;92.00
13794;DHT22;31160;49.500;7.772;2023-06-22T12:08:12;31.50;92.30
13794;DHT22;31160;49.500;7.772;2023-06-22T12:10:40;31.50;92.40
13794;DHT22;31160;49.500;7.772;2023-06-22T12:13:07;31.80;92.50
13794;DHT22;31160;49.500;7.772;2023-06-22T12:15:34;31.60;92.40
13794;DHT22;31160;49.500;7.772;2023-06-22T12:18:01;31.70;92.70
13794;DHT22;31160;49.500;7.772;2023-06-22T12:20:28;32.00;92.00
13794;DHT22;31160;49.500;7.772;2023-06-22T12:22:55;32.20;90.80
13794;DHT22;31160;49.500;7.772;2023-06-22T12:25:24;32.10;91.30
13794;DHT22;31160;49.500;7.772;2023-06-22T12:27:51;32.10;89.80
13794;DHT22;31160;49.500;7.772;2023-06-22T12:30:18;32.20;90.50
13794;DHT22;31160;49.500;7.772;2023-06-22T12:32:44;32.30;90.30
13794;DHT22;31160;49.500;7.772;2023-06-22T12:35:11;32.00;90.80
13794;DHT22;31160;49.500;7.772;2023-06-22T12:37:42;32.20;90.80
13794;DHT22;31160;49.500;7.772;2023-06-22T12:40:10;32.40;90.70
13794;DHT22;31160;49.500;7.772;2023-06-22T12:42:37;32.50;90.90
13794;DHT22;31160;49.500;7.772;2023-06-22T12:45:04;32.70;88.70
13794;DHT22;31160;49.500;7.772;2023-06-22T12:47:31;32.50;89.00
13794;DHT22;31160;49.500;7.772;2023-06-22T12:49:58;32.30;89.80
13794;DHT22;31160;49.500;7.772;2023-06-22T12:52:25;32.40;89.80
13794;DHT22;31160;49.500;7.772;2023-06-22T12:54:52;32.20;89.40
13794;DHT22;31160;49.500;7.772;2023-06-22T12:57:21;32.20;88.00
13794;DHT22;31160;49.500;7.772;2023-06-22T12:59:48;32.30;87.90
13794;DHT22;31160;49.500;7.772;2023-06-22T13:02:15;32.30;85.70
13794;DHT22;31160;49.500;7.772;2023-06-22T13:04:42;32.40;85.30
13794;DHT22;31160;49.500;7.772;2023-06-22T13:07:10;32.30;84.20
13794;DHT22;31160;49.500;7.772;2023-06-22T13:09:49;32.10;83.90
13794;DHT22;31160;49.500;7.772;2023-06-22T13:12:22;32.10;81.40
13794;DHT22;31160;49.500;7.772;2023-06-22T13:14:49;32.10;80.60
13794;DHT22;31160;49.500;7.772;2023-06-22T13:17:16;31.90;81.50
13794;DHT22;31160;49.500;7.772;2023-06-22T13:19:43;32.10;82.20
13794;DHT22;31160;49.500;7.772;2023-06-22T13:22:35;32.40;81.90
13794;DHT22;31160;49.500;7.772;2023-06-22T13:25:09;31.80;81.70
13794;DHT22;31160;49.500;7.772;2023-06-22T13:27:41;31.50;82.80
13794;DHT22;31160;49.500;7.772;2023-06-22T13:30:08;31.60;83.10
13794;DHT22;31160;49.500;7.772;2023-06-22T13:32:39;31.60;83.80
13794;DHT22;31160;49.500;7.772;2023-06-22T13:35:09;31.60;84.80
13794;DHT22;31160;49.500;7.772;2023-06-22T13:37:36;31.80;84.60
13794;DHT22;31160;49.500;7.772;2023-06-22T13:40:07;31.80;85.00
13794;DHT22;31160;49.500;7.772;2023-06-22T13:42:34;32.20;84.00
13794;DHT22;31160;49.500;7.772;2023-06-22T13:45:02;32.20;84.60
13794;DHT22;31160;49.500;7.772;2023-06-22T13:47:30;32.10;84.60
13794;DHT22;31160;49.500;7.772;2023-06-22T13:49:58;32.10;85.40
13794;DHT22;31160;49.500;7.772;2023-06-22T13:52:25;32.00;85.60
13794;DHT22;31160;49.500;7.772;2023-06-22T13:54:52;32.10;85.70
13794;DHT22;31160;49.500;7.772;2023-06-22T13:57:19;32.30;86.70
13794;DHT22;31160;49.500;7.772;2023-06-22T13:59:46;32.30;84.00
13794;DHT22;31160;49.500;7.772;2023-06-22T14:02:13;31.80;84.50
13794;DHT22;31160;49.500;7.772;2023-06-22T14:04:40;31.60;85.90
13794;DHT22;31160;49.500;7.772;2023-06-22T14:07:07;31.60;85.40
13794;DHT22;31160;49.500;7.772;2023-06-22T14:09:34;31.90;86.00
13794;DHT22;31160;49.500;7.772;2023-06-22T14:12:07;31.60;85.50
13794;DHT22;31160;49.500;7.772;2023-06-22T14:14:34;31.50;86.50
13794;DHT22;31160;49.500;7.772;2023-06-22T14:17:01;31.80;86.40
13794;DHT22;31160;49.500;7.772;2023-06-22T14:19:28;31.80;85.40
13794;DHT22;31160;49.500;7.772;2023-06-22T14:21:54;31.60;85.70
13794;DHT22;31160;49.500;7.772;2023-06-22T14:24:21;31.50;85.90
13794;DHT22;31160;49.500;7.772;2023-06-22T14:26:51;31.40;85.80
13794;DHT22;31160;49.500;7.772;2023-06-22T14:29:18;31.60;85.90
13794;DHT22;31160;49.500;7.772;2023-06-22T14:31:45;31.50;84.60
13794;DHT22;31160;49.500;7.772;2023-06-22T14:34:13;31.60;83.70
13794;DHT22;31160;49.500;7.772;2023-06-22T14:36:40;31.40;83.30
13794;DHT22;31160;49.500;7.772;2023-06-22T14:39:07;31.50;83.60
13794;DHT22;31160;49.500;7.772;2023-06-22T14:41:35;31.40;83.50
13794;DHT22;31160;49.500;7.772;2023-06-22T14:44:01;31.40;83.20
13794;DHT22;31160;49.500;7.772;2023-06-22T14:46:28;31.20;82.90
13794;DHT22;31160;49.500;7.772;2023-06-22T14:48:55;30.90;84.10
13794;DHT22;31160;49.500;7.772;2023-06-22T14:51:22;30.60;84.40
13794;DHT22;31160;49.500;7.772;2023-06-22T14:53:49;30.50;84.40
13794;DHT22;31160;49.500;7.772;2023-06-22T14:56:15;30.40;84.40
13794;DHT22;31160;49.500;7.772;2023-06-22T14:58:43;30.40;85.10
13794;DHT22;31160;49.500;7.772;2023-06-22T15:01:14;29.90;89.30
13794;DHT22;31160;49.500;7.772;2023-06-22T15:03:41;30.20;89.70
13794;DHT22;31160;49.500;7.772;2023-06-22T15:06:09;30.70;89.30
13794;DHT22;31160;49.500;7.772;2023-06-22T15:08:42;30.80;87.80
13794;DHT22;31160;49.500;7.772;2023-06-22T15:11:08;31.10;87.60
13794;DHT22;31160;49.500;7.772;2023-06-22T15:13:39;31.10;87.60
13794;DHT22;31160;49.500;7.772;2023-06-22T15:16:06;31.40;87.20
13794;DHT22;31160;49.500;7.772;2023-06-22T15:18:33;31.50;86.70
13794;DHT22;31160;49.500;7.772;2023-06-22T15:21:02;31.20;86.30
13794;DHT22;31160;49.500;7.772;2023-06-22T15:23:30;31.60;86.00
13794;DHT22;31160;49.500;7.772;2023-06-22T15:25:57;31.70;85.40
13794;DHT22;31160;49.500;7.772;2023-06-22T15:28:25;32.10;85.10
13794;DHT22;31160;49.500;7.772;2023-06-22T15:30:52;32.30;83.00
13794;DHT22;31160;49.500;7.772;2023-06-22T15:33:19;32.30;82.50
13794;DHT22;31160;49.500;7.772;2023-06-22T15:35:46;31.80;81.90
13794;DHT22;31160;49.500;7.772;2023-06-22T15:38:12;31.90;80.80
13794;DHT22;31160;49.500;7.772;2023-06-22T15:40:39;32.10;80.50